Time;durP1;ratioP1;P1;durP2;ratioP2;P2;SDS_P1;SDS_P2;PMS_P1;PMS_P2;Temp;Humidity;BMP_temperature;BMP_pressure;BME280_temperature;BME280_humidity;BME280_pressure;Samples;Min_cycle;Max_cycle;Signal;HPM_P1;HPM_P2
2021/04/26 00:03:45;;;;;;;2.45;1.52;;;12.70;32.70;;;;;;10186484;28;20056;-77
2021/04/26 00:08:42;;;;;;;3.88;1.75;;;12.70;33.40;;;;;;10184795;28;20433;-78
2021/04/26 00:13:36;;;;;;;4.35;1.90;;;12.60;32.70;;;;;;10185341;28;20048;-78
2021/04/26 00:18:30;;;;;;;4.30;1.65;;;12.60;33.80;;;;;;10167801;28;20054;-79
2021/04/26 00:23:25;;;;;;;3.20;1.70;;;12.60;33.70;;;;;;10167112;28;20486;-77
2021/04/26 00:28:20;;;;;;;4.95;1.73;;;12.40;32.80;;;;;;10183673;28;20044;-78
2021/04/26 00:33:13;;;;;;;3.20;1.40;;;12.40;32.50;;;;;;10183696;28;20044;-79
2021/04/26 00:38:07;;;;;;;2.03;1.30;;;12.40;33.40;;;;;;10166939;28;20055;-80
2021/04/26 00:43:02;;;;;;;5.60;2.00;;;12.40;33.40;;;;;;10183919;28;20802;-80
2021/04/26 00:47:56;;;;;;;6.93;2.40;;;12.30;32.70;;;;;;10167591;28;20044;-81
2021/04/26 00:52:52;;;;;;;4.95;1.88;;;12.30;33.60;;;;;;10166145;28;20056;-80
2021/04/26 00:57:47;;;;;;;2.50;1.70;;;12.20;33.50;;;;;;10185338;28;20126;-80
2021/04/26 01:02:42;;;;;;;3.53;1.83;;;12.10;34.40;;;;;;10182185;28;20067;-77
2021/04/26 01:07:38;;;;;;;3.47;1.70;;;12.00;33.80;;;;;;10182134;28;20048;-78
2021/04/26 01:12:42;;;;;;;4.70;1.85;;;12.00;33.00;;;;;;10181978;28;20051;-77
2021/04/26 01:17:45;;;;;;;5.70;1.90;;;12.00;33.00;;;;;;10181980;28;20755;-78
2021/04/26 01:23:24;;;;;;;5.63;1.83;;;12.00;33.60;;;;;;10182998;28;20064;-78
2021/04/26 01:28:36;;;;;;;4.43;1.63;;;12.00;33.60;;;;;;10146083;28;20056;-79
2021/04/26 01:33:39;;;;;;;3.40;1.70;;;11.90;33.70;;;;;;10149239;28;20036;-76
2021/04/26 01:38:37;;;;;;;3.25;1.80;;;11.90;33.90;;;;;;10182377;28;20455;-76
2021/04/26 01:43:31;;;;;;;5.03;2.35;;;11.80;34.00;;;;;;10180963;28;20096;-75
2021/04/26 01:48:28;;;;;;;5.35;2.22;;;11.80;33.90;;;;;;10165533;28;20048;-76
2021/04/26 01:53:27;;;;;;;3.92;2.10;;;11.80;33.90;;;;;;10164400;28;20130;-78
2021/04/26 01:58:24;;;;;;;5.25;2.03;;;11.80;33.30;;;;;;10180394;28;20056;-77
2021/04/26 02:03:21;;;;;;;2.83;1.42;;;11.70;34.10;;;;;;10180320;28;20485;-78
2021/04/26 02:08:39;;;;;;;2.45;1.75;;;11.70;34.40;;;;;;10167158;28;20059;-79
2021/04/26 02:13:35;;;;;;;3.97;1.90;;;11.70;34.80;;;;;;10179838;28;20047;-77
2021/04/26 02:18:34;;;;;;;4.65;1.98;;;11.60;35.00;;;;;;10179924;28;20063;-78
2021/04/26 02:23:31;;;;;;;4.93;2.20;;;11.40;34.90;;;;;;10179965;28;20052;-79
2021/04/26 02:28:29;;;;;;;5.93;2.13;;;11.40;35.10;;;;;;10179415;28;20495;-78
2021/04/26 02:33:29;;;;;;;3.85;1.63;;;11.40;35.40;;;;;;10179006;28;20512;-78
2021/04/26 02:38:47;;;;;;;4.47;1.80;;;11.30;35.20;;;;;;10179034;28;20044;-78
2021/04/26 02:43:49;;;;;;;5.75;2.30;;;11.20;35.30;;;;;;10163624;28;20134;-78
2021/04/26 02:48:47;;;;;;;3.47;1.83;;;11.20;36.20;;;;;;10179122;28;20047;-76
2021/04/26 02:53:42;;;;;;;4.28;1.98;;;11.10;36.20;;;;;;10162107;28;20060;-78
2021/04/26 02:58:37;;;;;;;5.82;1.88;;;10.50;36.20;;;;;;10161961;28;20123;-78
2021/04/26 03:03:43;;;;;;;3.22;1.77;;;10.90;36.60;;;;;;10178647;28;20093;-77
2021/04/26 03:08:40;;;;;;;5.30;1.70;;;10.90;36.50;;;;;;10161794;28;20048;-76
2021/04/26 03:13:36;;;;;;;5.28;1.98;;;11.00;36.60;;;;;;10145355;28;20052;-78
2021/04/26 03:18:35;;;;;;;5.70;2.53;;;10.90;36.90;;;;;;10161860;28;20098;-78
2021/04/26 03:23:30;;;;;;;5.70;2.10;;;10.90;37.60;;;;;;10178746;28;20040;-78
2021/04/26 03:28:26;;;;;;;4.90;2.28;;;11.10;38.30;;;;;;10162057;28;20052;-76
2021/04/26 03:33:20;;;;;;;10.43;2.72;;;8.90;36.10;;;;;;10182230;28;20062;-80
2021/04/26 03:38:15;;;;;;;5.07;2.47;;;11.20;37.80;;;;;;10168485;28;20056;-79
2021/04/26 03:43:11;;;;;;;5.65;2.90;;;11.10;38.40;;;;;;10185398;28;20044;-75
2021/04/26 03:48:26;;;;;;;4.90;2.40;;;11.00;38.80;;;;;;10185129;28;20048;-76
2021/04/26 03:53:35;;;;;;;;;;;10.90;39.20;;;;;;10187016;28;20078;-77
2021/04/26 03:58:44;;;;;;;4.22;2.30;;;10.80;39.40;;;;;;10185853;28;19924;-77
2021/04/26 04:03:40;;;;;;;5.55;2.70;;;12.30;40.50;;;;;;10184939;28;20475;-77
2021/04/26 04:08:36;;;;;;;7.85;2.88;;;10.80;38.80;;;;;;10184766;28;20149;-78
2021/04/26 04:13:49;;;;;;;6.07;3.15;;;10.60;39.70;;;;;;10184382;28;20127;-77
2021/04/26 04:18:44;;;;;;;6.50;3.17;;;10.60;40.00;;;;;;10185077;28;20044;-77
2021/04/26 04:23:40;;;;;;;6.65;2.70;;;10.50;40.30;;;;;;10185495;28;20429;-77
2021/04/26 04:28:36;;;;;;;7.85;2.78;;;10.60;40.10;;;;;;10184593;28;20119;-78
2021/04/26 04:33:40;;;;;;;8.07;3.38;;;10.60;39.90;;;;;;10183648;28;20135;-81
2021/04/26 04:38:52;;;;;;;9.73;3.10;;;10.50;40.00;;;;;;10184553;28;20044;-80
2021/04/26 04:44:11;;;;;;;10.45;2.60;;;10.40;40.30;;;;;;10183626;28;20048;-78
2021/04/26 04:49:09;;;;;;;7.20;2.65;;;10.40;40.20;;;;;;10181943;28;20052;-78
2021/04/26 04:54:07;;;;;;;5.68;2.70;;;10.40;40.30;;;;;;10166808;28;20528;-79
2021/04/26 04:59:15;;;;;;;6.88;2.85;;;10.40;40.40;;;;;;10166500;28;20071;-77
2021/04/26 05:04:15;;;;;;;13.40;2.85;;;10.40;40.40;;;;;;10164842;28;20048;-77
2021/04/26 05:09:27;;;;;;;5.60;2.75;;;;;;;;;;10181556;28;20123;-79
2021/04/26 05:14:45;;;;;;;9.73;3.00;;;10.80;39.30;;;;;;10181033;28;20070;-78
2021/04/26 05:19:41;;;;;;;7.57;2.97;;;;;;;;;;10181020;28;20059;-78
2021/04/26 05:24:37;;;;;;;8.10;3.63;;;12.10;39.60;;;;;;10182886;28;20489;-78
2021/04/26 05:29:33;;;;;;;8.23;3.10;;;;;;;;;;10180628;28;20071;-76
2021/04/26 05:34:31;;;;;;;9.50;2.97;;;;;;;;;;10162372;28;20148;-78
2021/04/26 05:39:28;;;;;;;8.45;3.22;;;11.10;39.20;;;;;;10179214;28;20466;-77
2021/04/26 05:44:22;;;;;;;11.82;3.35;;;11.20;38.10;;;;;;10179602;28;20048;-77
2021/04/26 05:49:29;;;;;;;7.85;3.20;;;12.50;39.70;;;;;;10178914;28;20108;-79
2021/04/26 05:54:24;;;;;;;8.90;3.05;;;9.60;38.10;;;;;;10177991;28;20063;-78
2021/04/26 05:59:23;;;;;;;6.38;2.63;;;11.90;39.30;;;;;;10178666;28;20407;-78
2021/04/26 06:04:17;;;;;;;6.57;2.80;;;12.10;38.50;;;;;;10180367;28;20058;-77
2021/04/26 06:09:14;;;;;;;6.28;3.20;;;10.20;37.80;;;;;;10179985;28;20135;-78
2021/04/26 06:14:07;;;;;;;7.22;3.03;;;;;;;;;;10178126;28;20044;-77
2021/04/26 06:19:04;;;;;;;10.15;2.63;;;11.30;37.90;;;;;;10179018;28;20044;-77
2021/04/26 06:23:58;;;;;;;5.85;2.50;;;;;;;;;;10178321;28;20520;-77
2021/04/26 06:28:55;;;;;;;6.78;2.60;;;11.00;37.60;;;;;;10178272;28;20052;-76
2021/04/26 06:33:51;;;;;;;4.38;2.22;;;11.90;37.70;;;;;;10180137;28;20054;-79
2021/04/26 06:38:47;;;;;;;4.97;2.88;;;12.70;37.70;;;;;;10179072;28;20052;-77
2021/04/26 06:43:41;;;;;;;6.63;2.83;;;;;;;;;;10179119;28;20082;-78
2021/04/26 06:48:37;;;;;;;9.85;2.53;;;;;;;;;;10178099;28;20043;-77
2021/04/26 06:53:35;;;;;;;4.82;2.60;;;10.90;36.10;;;;;;10159705;28;20074;-79
2021/04/26 06:58:33;;;;;;;8.90;2.88;;;;;;;;;;10179572;28;20048;-80
2021/04/26 07:03:29;;;;;;;9.50;2.78;;;;;;;;;;10161582;28;20119;-79
2021/04/26 07:08:25;;;;;;;4.53;2.22;;;11.90;35.90;;;;;;10168614;28;20112;-79
2021/04/26 07:13:19;;;;;;;5.20;1.98;;;12.30;34.80;;;;;;10169054;28;20060;-80
2021/04/26 07:18:14;;;;;;;6.43;3.72;;;12.40;34.70;;;;;;10186240;28;20043;-80
2021/04/26 07:23:07;;;;;;;6.65;2.30;;;10.90;35.30;;;;;;10184934;28;20063;-78
2021/04/26 07:28:01;;;;;;;6.82;2.53;;;11.20;35.20;;;;;;10166752;28;20054;-78
2021/04/26 07:32:54;;;;;;;9.45;2.83;;;12.30;34.40;;;;;;10182018;28;20345;-80
2021/04/26 07:37:49;;;;;;;9.98;2.78;;;11.90;35.50;;;;;;10184181;28;20423;-81
2021/04/26 07:42:43;;;;;;;6.18;2.63;;;13.70;35.30;;;;;;10184708;28;20040;-81
2021/04/26 07:47:36;;;;;;;4.47;2.60;;;;;;;;;;10185435;28;20043;-79
2021/04/26 07:52:31;;;;;;;3.63;2.47;;;11.10;34.90;;;;;;10180206;28;20123;-79
2021/04/26 07:57:25;;;;;;;6.32;2.92;;;;;;;;;;10182942;28;20501;-79
2021/04/26 08:02:19;;;;;;;6.75;2.72;;;13.90;35.90;;;;;;10181600;28;20087;-82
2021/04/26 08:07:13;;;;;;;5.78;2.70;;;11.80;34.50;;;;;;10182938;28;20048;-76
2021/04/26 08:12:07;;;;;;;7.90;2.40;;;11.20;34.20;;;;;;10181185;28;20048;-75
2021/04/26 08:17:02;;;;;;;5.30;2.33;;;13.30;35.30;;;;;;10181671;28;20143;-75
2021/04/26 08:21:56;;;;;;;8.35;3.05;;;12.10;34.60;;;;;;10181765;28;20051;-78
2021/04/26 08:26:53;;;;;;;5.47;2.70;;;13.60;35.30;;;;;;10182418;28;20094;-77
2021/04/26 08:31:47;;;;;;;4.90;2.78;;;;;;;;;;10163858;28;20048;-76
2021/04/26 08:36:43;;;;;;;4.35;2.35;;;12.90;33.00;;;;;;10178931;28;20147;-74
2021/04/26 08:41:41;;;;;;;7.50;2.92;;;13.80;35.10;;;;;;10180134;28;20044;-77
2021/04/26 08:46:42;;;;;;;6.40;2.55;;;12.60;32.60;;;;;;10180254;28;20044;-75
2021/04/26 08:51:38;;;;;;;11.05;3.38;;;13.00;32.80;;;;;;10179190;28;20060;-77
2021/04/26 08:56:35;;;;;;;7.13;2.67;;;12.50;32.30;;;;;;10163796;28;20047;-76
2021/04/26 09:01:29;;;;;;;6.72;2.70;;;12.40;31.70;;;;;;10179670;28;20371;-74
2021/04/26 09:06:23;;;;;;;6.25;2.40;;;15.30;35.30;;;;;;10181245;28;20066;-76
2021/04/26 09:11:17;;;;;;;4.15;2.25;;;12.50;33.70;;;;;;10163783;28;20048;-76
2021/04/26 09:16:20;;;;;;;5.45;2.78;;;14.20;33.90;;;;;;10180068;28;20135;-76
2021/04/26 09:21:23;;;;;;;3.05;2.45;;;12.40;32.30;;;;;;10163022;28;20070;-75
2021/04/26 09:26:25;;;;;;;4.07;2.35;;;14.10;32.60;;;;;;10162321;28;20048;-77
2021/04/26 09:31:19;;;;;;;4.93;2.60;;;14.10;32.30;;;;;;10178710;28;20070;-77
2021/04/26 09:36:19;;;;;;;4.47;2.38;;;12.50;31.80;;;;;;10179134;28;20058;-78
2021/04/26 09:41:24;;;;;;;6.40;2.53;;;;;;;;;;10162007;28;20055;-77
2021/04/26 09:46:22;;;;;;;7.13;2.45;;;13.00;32.50;;;;;;10146904;28;20423;-78
2021/04/26 09:51:22;;;;;;;3.95;2.55;;;15.10;33.70;;;;;;10180526;28;20060;-77
2021/04/26 09:56:18;;;;;;;5.28;2.78;;;;;;;;;;10162416;28;20052;-76
2021/04/26 10:01:16;;;;;;;9.25;2.92;;;14.00;31.80;;;;;;10179488;28;20057;-78
2021/04/26 10:06:18;;;;;;;5.40;2.30;;;14.10;31.20;;;;;;10147799;28;20506;-75
2021/04/26 10:11:16;;;;;;;6.03;2.90;;;15.40;32.40;;;;;;10145311;28;20363;-78
2021/04/26 10:16:22;;;;;;;3.45;2.30;;;15.80;32.20;;;;;;10146580;28;20056;-77
2021/04/26 10:21:35;;;;;;;5.75;2.38;;;14.00;30.40;;;;;;10178490;28;20051;-76
2021/04/26 10:26:46;;;;;;;6.15;2.50;;;14.70;30.00;;;;;;10177931;28;20084;-75
2021/04/26 10:32:13;;;;;;;5.53;2.70;;;14.50;30.30;;;;;;10179205;28;20056;-77
2021/04/26 10:37:21;;;;;;;7.72;2.70;;;14.50;31.00;;;;;;10177846;28;20040;-76
2021/04/26 10:42:15;;;;;;;7.70;2.95;;;14.90;30.30;;;;;;10178026;28;20043;-74
2021/04/26 10:47:31;;;;;;;7.45;2.55;;;14.90;31.10;;;;;;10176937;28;20048;-74
2021/04/26 10:52:38;;;;;;;3.13;2.42;;;15.00;31.10;;;;;;10176676;28;20106;-76
2021/04/26 10:57:34;;;;;;;3.70;2.53;;;15.10;30.90;;;;;;10177155;28;20392;-76
2021/04/26 11:02:31;;;;;;;5.05;2.20;;;16.60;31.10;;;;;;10178353;28;20048;-75
2021/04/26 11:07:37;;;;;;;9.55;3.80;;;15.90;30.00;;;;;;10177660;28;20044;-74
2021/04/26 11:12:31;;;;;;;5.15;2.63;;;16.10;30.40;;;;;;10161438;28;20058;-76
2021/04/26 11:17:26;;;;;;;5.55;2.58;;;;;;;;;;10178882;28;20524;-75
2021/04/26 11:22:36;;;;;;;8.80;2.90;;;16.40;29.80;;;;;;10161185;28;20068;-74
2021/04/26 11:27:31;;;;;;;9.20;2.40;;;;;;;;;;10177530;28;20052;-73
2021/04/26 11:32:27;;;;;;;3.88;2.50;;;16.90;28.60;;;;;;10178486;28;20046;-75
2021/04/26 11:37:21;;;;;;;5.65;2.33;;;16.60;28.40;;;;;;10176318;28;20043;-73
2021/04/26 11:42:21;;;;;;;4.13;2.33;;;17.50;29.00;;;;;;10176648;28;20040;-75
2021/04/26 11:47:20;;;;;;;6.10;2.40;;;17.00;28.20;;;;;;10176389;28;20044;-75
2021/04/26 11:52:15;;;;;;;6.43;2.53;;;15.70;28.10;;;;;;10159539;28;20056;-73
2021/04/26 11:57:16;;;;;;;;;;;15.40;27.10;;;;;;10184611;28;20131;-74
2021/04/26 12:02:09;;;;;;;8.93;2.45;;;16.50;28.60;;;;;;10183114;28;20002;-74
2021/04/26 12:07:05;;;;;;;2.78;2.10;;;16.30;28.80;;;;;;10181166;28;20048;-75
2021/04/26 12:12:00;;;;;;;6.82;2.72;;;16.70;27.80;;;;;;10181039;28;20135;-77
2021/04/26 12:17:17;;;;;;;3.15;2.15;;;15.70;28.50;;;;;;10181932;28;20052;-75
2021/04/26 12:22:12;;;;;;;5.80;2.60;;;;;;;;;;10182052;28;20470;-74
2021/04/26 12:27:11;;;;;;;8.40;2.55;;;;;;;;;;10183872;28;20043;-75
2021/04/26 12:32:16;;;;;;;5.30;2.53;;;15.40;27.40;;;;;;10183244;28;20044;-76
2021/04/26 12:37:13;;;;;;;9.48;2.95;;;16.70;28.60;;;;;;10184247;28;20379;-76
2021/04/26 12:42:13;;;;;;;7.93;3.90;;;16.20;28.10;;;;;;10182457;28;20050;-76
2021/04/26 12:47:17;;;;;;;8.52;3.53;;;16.00;28.40;;;;;;10183215;28;20499;-76
2021/04/26 12:52:16;;;;;;;5.18;2.85;;;17.30;30.00;;;;;;10182378;28;20560;-78
2021/04/26 12:57:11;;;;;;;6.43;3.38;;;16.40;29.70;;;;;;10181301;28;20044;-76
2021/04/26 13:02:05;;;;;;;6.40;3.38;;;15.80;29.30;;;;;;10179183;28;20051;-74
2021/04/26 13:06:58;;;;;;;8.23;3.13;;;15.60;28.60;;;;;;10181060;28;20410;-76
2021/04/26 13:11:52;;;;;;;7.95;3.33;;;16.80;30.00;;;;;;10182088;28;20052;-76
2021/04/26 13:16:46;;;;;;;8.98;3.17;;;;;;;;;;10182445;28;20050;-76
2021/04/26 13:21:41;;;;;;;8.68;3.08;;;16.10;30.50;;;;;;10181659;28;20047;-78
2021/04/26 13:26:35;;;;;;;7.72;3.58;;;16.70;31.00;;;;;;10181358;28;20047;-81
2021/04/26 13:31:30;;;;;;;6.22;3.28;;;15.60;29.70;;;;;;10180211;28;20463;-77
2021/04/26 13:36:25;;;;;;;12.02;5.13;;;16.50;31.00;;;;;;10182049;28;20054;-80
2021/04/26 13:41:26;;;;;;;9.65;3.47;;;16.90;31.60;;;;;;10163582;28;20052;-78
2021/04/26 13:46:25;;;;;;;9.90;3.67;;;15.60;29.90;;;;;;10180581;28;20051;-78
2021/04/26 13:51:20;;;;;;;8.30;3.92;;;15.20;31.10;;;;;;10161476;28;20058;-79
2021/04/26 13:56:14;;;;;;;7.38;3.40;;;15.20;31.80;;;;;;10179804;28;20070;-78
2021/04/26 14:01:09;;;;;;;8.45;3.55;;;15.10;32.00;;;;;;10177439;28;20394;-78
2021/04/26 14:06:04;;;;;;;8.27;4.03;;;15.00;31.40;;;;;;10178344;28;20087;-78
2021/04/26 14:11:01;;;;;;;6.30;3.47;;;15.00;31.80;;;;;;10178274;28;20063;-78
2021/04/26 14:15:54;;;;;;;10.98;5.20;;;15.10;32.10;;;;;;10177675;28;20075;-78
2021/04/26 14:20:49;;;;;;;9.38;4.70;;;14.90;32.30;;;;;;10178460;28;20062;-79
2021/04/26 14:25:43;;;;;;;10.68;3.97;;;14.90;32.80;;;;;;10179083;28;20102;-78
2021/04/26 14:30:44;;;;;;;10.80;4.72;;;15.50;39.10;;;;;;10178377;28;20044;-78
2021/04/26 14:35:38;;;;;;;10.50;4.43;;;14.50;37.90;;;;;;10178324;28;20056;-77
2021/04/26 14:40:35;;;;;;;8.38;4.28;;;;;;;;;;10178786;28;20055;-79
2021/04/26 14:45:30;;;;;;;11.20;4.15;;;13.70;33.80;;;;;;10177710;28;20482;-79
2021/04/26 14:50:26;;;;;;;10.35;4.32;;;13.80;33.50;;;;;;10161462;28;20052;-78
2021/04/26 14:55:22;;;;;;;9.00;4.37;;;14.00;34.20;;;;;;10178265;28;20051;-79
2021/04/26 15:00:19;;;;;;;9.10;4.57;;;15.30;36.40;;;;;;10178324;28;20391;-78
2021/04/26 15:05:17;;;;;;;10.98;5.00;;;13.00;36.30;;;;;;10178036;28;20507;-75
2021/04/26 15:10:17;;;;;;;8.68;4.57;;;;;;;;;;10178079;28;20052;-78
2021/04/26 15:15:22;;;;;;;7.65;4.50;;;12.40;37.40;;;;;;10162639;28;20060;-78
2021/04/26 15:20:16;;;;;;;11.05;5.40;;;13.60;38.20;;;;;;10182456;28;20055;-79
2021/04/26 15:25:14;;;;;;;8.68;5.60;;;13.50;37.90;;;;;;10165026;28;20050;-79
2021/04/26 15:30:15;;;;;;;14.73;4.55;;;13.70;38.90;;;;;;10185177;28;20519;-79
2021/04/26 15:35:10;;;;;;;8.35;4.78;;;13.30;38.70;;;;;;10169927;28;20058;-79
2021/04/26 15:40:09;;;;;;;10.00;5.30;;;13.30;38.80;;;;;;10168919;28;20213;-78
2021/04/26 15:45:20;;;;;;;9.40;4.57;;;13.40;39.00;;;;;;10170445;28;20146;-78
2021/04/26 15:50:14;;;;;;;10.75;4.95;;;13.30;39.10;;;;;;10184569;28;20060;-77
2021/04/26 15:55:13;;;;;;;6.70;4.53;;;12.90;38.80;;;;;;10185155;28;20052;-79
2021/04/26 16:00:12;;;;;;;9.80;4.80;;;13.30;39.40;;;;;;10184234;28;20769;-78
2021/04/26 16:05:09;;;;;;;12.30;5.28;;;14.70;41.10;;;;;;10186177;28;20048;-77
2021/04/26 16:10:07;;;;;;;10.45;5.15;;;13.30;39.10;;;;;;10185367;28;20093;-79
2021/04/26 16:15:03;;;;;;;12.15;4.82;;;;;;;;;;10183590;28;20048;-79
2021/04/26 16:19:57;;;;;;;8.52;4.18;;;13.70;40.50;;;;;;10184959;28;20513;-78
2021/04/26 16:24:53;;;;;;;8.35;4.78;;;11.90;39.10;;;;;;10183698;28;20095;-81
2021/04/26 16:29:48;;;;;;;15.63;5.40;;;14.50;40.10;;;;;;10181844;28;20052;-79
2021/04/26 16:34:44;;;;;;;10.88;5.18;;;14.10;38.70;;;;;;10181485;28;20052;-83
2021/04/26 16:39:38;;;;;;;11.07;5.50;;;11.80;38.80;;;;;;10164560;28;20044;-79
2021/04/26 16:44:33;;;;;;;13.25;5.95;;;15.50;40.80;;;;;;10182738;28;20069;-80
2021/04/26 16:49:28;;;;;;;10.43;5.85;;;12.00;39.20;;;;;;10182645;28;20048;-80
2021/04/26 16:54:23;;;;;;;13.90;5.45;;;15.70;41.30;;;;;;10182481;28;20063;-79
2021/04/26 16:59:43;;;;;;;9.88;5.72;;;14.20;40.80;;;;;;10182185;28;20097;-78
2021/04/26 17:04:36;;;;;;;14.00;5.33;;;14.00;40.50;;;;;;10183149;28;20402;-78
2021/04/26 17:09:31;;;;;;;11.75;6.00;;;14.00;40.70;;;;;;10181928;28;20054;-79
2021/04/26 17:14:26;;;;;;;10.02;5.57;;;13.10;39.80;;;;;;10182128;28;20479;-78
2021/04/26 17:19:22;;;;;;;12.20;5.70;;;14.40;41.40;;;;;;10165287;28;20048;-78
2021/04/26 17:24:17;;;;;;;13.98;6.00;;;;;;;;;;10147963;28;20356;-74
2021/04/26 17:29:11;;;;;;;11.43;5.90;;;13.90;40.60;;;;;;10182271;28;20127;-74
2021/04/26 17:34:04;;;;;;;10.93;5.35;;;13.60;40.40;;;;;;10182293;28;20050;-73
2021/04/26 17:39:00;;;;;;;14.02;6.15;;;;;;;;;;10181915;28;20428;-73
2021/04/26 17:43:55;;;;;;;16.38;6.15;;;13.80;40.40;;;;;;10164943;28;20064;-75
2021/04/26 17:48:48;;;;;;;11.10;5.28;;;13.80;40.50;;;;;;10181642;28;20058;-74
2021/04/26 17:53:43;;;;;;;12.57;5.75;;;12.00;40.40;;;;;;10181229;28;20056;-73
2021/04/26 17:58:38;;;;;;;13.80;6.20;;;12.10;40.40;;;;;;10180132;28;20058;-73
2021/04/26 18:03:31;;;;;;;10.98;5.30;;;14.30;41.40;;;;;;10181035;28;20044;-73
2021/04/26 18:08:24;;;;;;;10.52;5.65;;;14.60;41.70;;;;;;10181053;28;20055;-73
2021/04/26 18:13:20;;;;;;;11.13;5.38;;;14.40;40.80;;;;;;10180757;28;20055;-72
2021/04/26 18:18:21;;;;;;;14.40;6.15;;;13.70;40.60;;;;;;10167194;28;20047;-73
2021/04/26 18:23:14;;;;;;;13.80;5.93;;;14.70;41.10;;;;;;10174039;28;20036;-73
2021/04/26 18:28:11;;;;;;;10.23;5.60;;;13.60;40.60;;;;;;10141173;28;20487;-74
2021/04/26 18:33:05;;;;;;;10.40;6.22;;;15.70;42.50;;;;;;10106873;28;20504;-72
2021/04/26 18:38:01;;;;;;;13.70;5.60;;;13.90;40.60;;;;;;10142837;28;20389;-73
2021/04/26 18:42:54;;;;;;;11.30;6.10;;;13.80;41.00;;;;;;10130859;28;20056;-74
2021/04/26 18:47:48;;;;;;;14.15;6.15;;;13.30;41.00;;;;;;10138514;28;20065;-73
2021/04/26 18:52:41;;;;;;;12.23;6.05;;;13.40;40.90;;;;;;10138224;28;20052;-74
2021/04/26 18:57:37;;;;;;;11.63;6.43;;;13.40;40.90;;;;;;10138282;28;20041;-74
2021/04/26 19:02:31;;;;;;;8.93;5.00;;;;;;;;;;10138502;28;20075;-74
2021/04/26 19:07:24;;;;;;;9.30;5.60;;;13.50;40.50;;;;;;10139736;28;20044;-73
2021/04/26 19:12:29;;;;;;;14.13;5.50;;;13.50;40.50;;;;;;10139196;28;20064;-76
2021/04/26 19:17:23;;;;;;;10.52;5.15;;;13.50;40.50;;;;;;10138950;28;20044;-78
2021/04/26 19:22:17;;;;;;;9.10;5.38;;;13.90;41.10;;;;;;10139392;28;20475;-77
2021/04/26 19:27:11;;;;;;;10.23;5.40;;;14.50;41.50;;;;;;10138717;28;20048;-78
2021/04/26 19:32:05;;;;;;;10.50;5.75;;;13.40;40.60;;;;;;10150087;28;20393;-80
2021/04/26 19:37:01;;;;;;;11.00;5.88;;;13.40;40.50;;;;;;10158226;28;20491;-75
2021/04/26 19:41:54;;;;;;;11.65;5.22;;;13.30;40.60;;;;;;10180386;28;20043;-79
2021/04/26 19:46:48;;;;;;;10.73;5.35;;;13.30;40.60;;;;;;10178554;28;20043;-78
2021/04/26 19:51:43;;;;;;;10.65;5.40;;;13.20;40.80;;;;;;10177669;28;20505;-78
2021/04/26 19:56:37;;;;;;;11.95;5.80;;;13.20;40.90;;;;;;10143042;28;20105;-78
2021/04/26 20:01:32;;;;;;;11.48;5.72;;;14.00;41.90;;;;;;10177546;28;20056;-78
2021/04/26 20:06:27;;;;;;;10.25;5.88;;;13.10;41.30;;;;;;10161792;28;20048;-79
2021/04/26 20:11:20;;;;;;;11.02;6.25;;;13.10;41.80;;;;;;10177780;28;20044;-77
2021/04/26 20:16:18;;;;;;;9.52;5.32;;;;;;;;;;10183661;28;20056;-82
2021/04/26 20:21:12;;;;;;;9.30;4.82;;;13.50;43.70;;;;;;10170958;28;20063;-76
2021/04/26 20:26:11;;;;;;;10.48;5.97;;;13.40;42.60;;;;;;10169877;28;20181;-79
2021/04/26 20:31:09;;;;;;;15.03;5.43;;;13.40;42.40;;;;;;10170984;28;20054;-78
2021/04/26 20:36:05;;;;;;;11.15;5.25;;;13.20;41.30;;;;;;10183290;28;20042;-79
2021/04/26 20:40:59;;;;;;;9.30;5.13;;;13.00;41.00;;;;;;10187631;28;20075;-77
2021/04/26 20:45:55;;;;;;;16.67;7.25;;;13.00;41.10;;;;;;10185421;28;20052;-79
2021/04/26 20:50:49;;;;;;;12.25;5.43;;;13.00;41.10;;;;;;10169124;28;20064;-79
2021/04/26 20:55:47;;;;;;;10.07;5.20;;;14.40;41.90;;;;;;10169247;28;20048;-81
2021/04/26 21:00:41;;;;;;;10.75;5.65;;;12.90;41.00;;;;;;10186042;28;20055;-80
2021/04/26 21:05:36;;;;;;;11.27;5.72;;;13.70;41.70;;;;;;10187314;28;20051;-81
2021/04/26 21:10:30;;;;;;;11.05;5.20;;;12.70;41.40;;;;;;10152033;28;20078;-83
2021/04/26 21:15:27;;;;;;;12.45;5.95;;;12.70;41.60;;;;;;10181156;28;20069;-83
2021/04/26 21:20:22;;;;;;;9.93;5.47;;;12.70;41.90;;;;;;10184998;28;20048;-78
2021/04/26 21:25:16;;;;;;;11.73;6.13;;;13.60;42.90;;;;;;10184201;28;20472;-79
2021/04/26 21:30:11;;;;;;;11.57;6.07;;;12.60;42.80;;;;;;10183623;28;20494;-79
2021/04/26 21:35:08;;;;;;;15.02;6.28;;;12.50;43.00;;;;;;10166025;28;20490;-77
2021/04/26 21:40:03;;;;;;;13.55;6.35;;;12.60;43.20;;;;;;10167540;28;20554;-80
2021/04/26 21:45:00;;;;;;;10.63;5.80;;;12.60;43.50;;;;;;10166413;28;20079;-79
2021/04/26 21:49:53;;;;;;;12.32;6.43;;;12.80;43.10;;;;;;10166380;28;20436;-77
2021/04/26 21:54:47;;;;;;;11.82;6.43;;;12.60;43.10;;;;;;10183222;28;20119;-79
2021/04/26 21:59:43;;;;;;;11.95;5.97;;;12.60;43.00;;;;;;10183221;28;20537;-80
2021/04/26 22:04:38;;;;;;;11.15;6.03;;;12.60;43.20;;;;;;10182172;28;20078;-77
2021/04/26 22:09:34;;;;;;;13.60;6.05;;;12.60;43.10;;;;;;10181998;28;20048;-82
2021/04/26 22:14:30;;;;;;;13.15;6.22;;;12.80;42.60;;;;;;10165034;28;20090;-79
2021/04/26 22:19:25;;;;;;;9.50;5.78;;;12.70;43.10;;;;;;10180411;28;20048;-80
2021/04/26 22:24:21;;;;;;;12.57;6.07;;;12.70;42.60;;;;;;10180714;28;20494;-83
2021/04/26 22:29:15;;;;;;;11.02;5.35;;;12.70;42.30;;;;;;10182806;28;20047;-80
2021/04/26 22:34:10;;;;;;;12.55;6.00;;;13.80;43.10;;;;;;10163947;28;20101;-79
2021/04/26 22:39:07;;;;;;;14.65;7.05;;;12.70;42.40;;;;;;10181848;28;20044;-83
2021/04/26 22:44:05;;;;;;;;;;;12.50;43.70;;;;;;10182248;28;20052;-87
2021/04/26 22:48:59;;;;;;;15.77;6.68;;;12.40;44.30;;;;;;10164238;28;19920;-78
2021/04/26 22:53:54;;;;;;;14.25;7.13;;;;;;;;;;10179028;28;20074;-81
2021/04/26 22:58:50;;;;;;;14.75;6.95;;;11.40;44.90;;;;;;10182333;28;20486;-86
2021/04/26 23:03:43;;;;;;;16.25;8.20;;;12.60;45.30;;;;;;10131876;28;20402;-80
2021/04/26 23:08:38;;;;;;;13.68;7.03;;;;;;;;;;10180954;28;20547;-79
2021/04/26 23:13:32;;;;;;;14.00;7.03;;;12.00;44.70;;;;;;10181135;28;20044;-78
2021/04/26 23:18:26;;;;;;;15.50;6.82;;;12.00;45.00;;;;;;10177118;28;20040;-76
2021/04/26 23:23:19;;;;;;;18.50;7.20;;;12.70;50.10;;;;;;10178123;28;20048;-75
2021/04/26 23:28:13;;;;;;;13.43;6.97;;;11.90;45.70;;;;;;10179424;28;20052;-77
2021/04/26 23:33:07;;;;;;;14.48;7.35;;;12.00;45.60;;;;;;10179343;28;20044;-77
2021/04/26 23:38:01;;;;;;;16.00;8.27;;;12.00;45.30;;;;;;10179366;28;20498;-77
2021/04/26 23:42:55;;;;;;;16.83;7.40;;;12.00;45.60;;;;;;10178603;28;20063;-76
2021/04/26 23:47:49;;;;;;;13.05;6.30;;;12.00;45.80;;;;;;10178493;28;20051;-79
2021/04/26 23:52:44;;;;;;;12.48;7.18;;;12.00;45.70;;;;;;10186151;28;20117;-79
2021/04/26 23:57:37;;;;;;;13.05;6.63;;;12.00;46.00;;;;;;10186682;28;20414;-77
